Time;durP1;ratioP1;P1;durP2;ratioP2;P2;SDS_P1;SDS_P2;PMS_P1;PMS_P2;Temp;Humidity;BMP_temperature;BMP_pressure;BME280_temperature;BME280_humidity;BME280_pressure;Samples;Min_cycle;Max_cycle;Signal;HPM_P1;HPM_P2
2024/01/17 00:01:09;;;;;;;13.10;7.90;;;-2.10;99.90;;;;;;5025893;28;20215;-88
2024/01/17 00:03:34;;;;;;;11.77;7.88;;;-2.10;99.90;;;;;;5038213;28;20245;-89
2024/01/17 00:06:00;;;;;;;16.40;7.13;;;-2.10;99.90;;;;;;5031210;28;20175;-88
2024/01/17 00:08:25;;;;;;;10.20;6.07;;;-2.00;99.90;;;;;;5031291;28;20178;-88
2024/01/17 00:10:51;;;;;;;14.70;7.40;;;-2.00;99.90;;;;;;5027786;28;20229;-87
2024/01/17 00:13:16;;;;;;;10.53;6.23;;;-2.10;99.90;;;;;;5036763;28;20187;-88
2024/01/17 00:15:42;;;;;;;13.90;6.70;;;-2.10;99.90;;;;;;5033692;28;20187;-88
2024/01/17 00:18:07;;;;;;;16.50;6.83;;;-2.10;99.90;;;;;;5039393;28;20213;-87
2024/01/17 00:20:33;;;;;;;13.43;7.80;;;-2.10;99.90;;;;;;5039226;28;20211;-91
2024/01/17 00:22:59;;;;;;;14.37;7.53;;;-2.00;99.90;;;;;;5037789;28;20174;-88
2024/01/17 00:25:25;;;;;;;13.07;6.77;;;-2.10;99.90;;;;;;5035378;28;20333;-87
2024/01/17 00:27:51;;;;;;;18.02;7.43;;;-2.20;99.90;;;;;;5032117;28;20175;-87
2024/01/17 00:30:16;;;;;;;17.93;7.00;;;-2.20;99.90;;;;;;5036775;28;20690;-88
2024/01/17 00:32:42;;;;;;;15.00;8.50;;;-2.20;99.90;;;;;;5041252;28;20213;-89
2024/01/17 00:35:08;;;;;;;12.13;7.40;;;-2.30;99.90;;;;;;5030951;28;20202;-88
2024/01/17 00:37:34;;;;;;;18.75;7.88;;;-2.30;99.90;;;;;;5041040;28;20178;-88
2024/01/17 00:39:59;;;;;;;12.00;6.83;;;-2.40;99.90;;;;;;5034582;28;20325;-88
2024/01/17 00:42:26;;;;;;;12.03;7.40;;;-2.40;99.90;;;;;;5031340;28;20247;-87
2024/01/17 00:44:53;;;;;;;17.02;7.35;;;-2.40;99.90;;;;;;5041196;28;20178;-89
2024/01/17 00:47:18;;;;;;;13.30;8.32;;;-2.40;1.00;;;;;;5027691;28;20216;-90
2024/01/17 00:49:44;;;;;;;13.23;6.83;;;-2.40;1.00;;;;;;5038659;28;20245;-89
2024/01/17 00:52:09;;;;;;;12.60;7.80;;;-2.50;1.00;;;;;;5038135;28;20217;-90
2024/01/17 00:54:35;;;;;;;13.50;8.47;;;-2.50;1.00;;;;;;5032400;28;20182;-89
2024/01/17 00:57:01;;;;;;;16.27;8.13;;;-2.50;1.00;;;;;;5043684;28;20496;-87
2024/01/17 00:59:26;;;;;;;12.00;7.37;;;-2.50;1.00;;;;;;5046238;28;20277;-88
2024/01/17 01:01:52;;;;;;;14.27;7.33;;;-2.50;1.00;;;;;;5038765;28;20207;-89
2024/01/17 01:04:17;;;;;;;12.40;7.53;;;-2.40;1.00;;;;;;5042073;28;20182;-89
2024/01/17 01:06:43;;;;;;;11.13;6.80;;;-2.30;1.00;;;;;;5046960;28;20174;-87
2024/01/17 01:09:09;;;;;;;18.00;7.90;;;-2.30;1.00;;;;;;5043483;28;20653;-87
2024/01/17 01:11:36;;;;;;;11.18;8.05;;;-2.30;1.00;;;;;;5036619;28;20742;-88
2024/01/17 01:14:02;;;;;;;16.27;8.05;;;-2.30;1.00;;;;;;5044735;28;20201;-88
2024/01/17 01:16:28;;;;;;;12.80;7.70;;;-2.50;1.00;;;;;;5045542;28;20193;-88
2024/01/17 01:18:53;;;;;;;18.07;9.03;;;-2.60;1.00;;;;;;5043266;28;20437;-88
2024/01/17 01:21:19;;;;;;;17.33;8.70;;;-2.70;1.00;;;;;;5044517;28;20242;-87
2024/01/17 01:23:46;;;;;;;12.07;7.57;;;-2.80;99.90;;;;;;5047420;28;20687;-87
2024/01/17 01:26:12;;;;;;;11.68;7.53;;;-2.80;99.90;;;;;;5040588;28;20230;-87
2024/01/17 01:28:37;;;;;;;15.13;8.00;;;-2.80;99.90;;;;;;5040820;28;20174;-86
2024/01/17 01:31:03;;;;;;;15.20;8.30;;;-2.70;99.90;;;;;;5032282;28;20199;-87
2024/01/17 01:33:28;;;;;;;17.60;9.40;;;-2.70;99.90;;;;;;5042321;28;20187;-87
2024/01/17 01:35:54;;;;;;;14.30;8.93;;;-2.70;99.90;;;;;;5033275;28;20575;-89
2024/01/17 01:38:19;;;;;;;13.10;8.23;;;-2.70;99.90;;;;;;5042844;28;20190;-88
2024/01/17 01:40:45;;;;;;;12.60;7.53;;;-2.80;99.90;;;;;;5042650;28;20214;-89
2024/01/17 01:43:18;;;;;;;14.17;7.97;;;-2.80;1.00;;;;;;5034259;28;20266;-88
2024/01/17 01:45:55;;;;;;;12.43;7.05;;;-2.80;1.00;;;;;;5039985;28;20315;-88
2024/01/17 01:48:21;;;;;;;11.55;6.82;;;-2.80;1.00;;;;;;5034856;28;20197;-86
2024/01/17 01:50:46;;;;;;;18.63;7.30;;;-2.80;1.00;;;;;;5042739;28;20704;-89
2024/01/17 01:53:12;;;;;;;13.50;8.50;;;-2.80;1.00;;;;;;5039537;28;20566;-88
2024/01/17 01:55:38;;;;;;;15.47;8.10;;;-2.90;1.00;;;;;;5034548;28;20178;-89
2024/01/17 01:58:03;;;;;;;19.87;9.93;;;-3.00;99.90;;;;;;5037474;28;20964;-86
2024/01/17 02:00:29;;;;;;;11.00;7.00;;;-3.00;99.90;;;;;;5034557;28;20302;-88
2024/01/17 02:02:54;;;;;;;13.30;7.10;;;-3.10;99.90;;;;;;5038823;28;20175;-87
2024/01/17 02:05:21;;;;;;;12.93;7.33;;;-3.00;99.90;;;;;;5032145;28;20212;-87
2024/01/17 02:07:49;;;;;;;10.07;7.93;;;-2.90;99.90;;;;;;5038025;28;20175;-88
2024/01/17 02:10:15;;;;;;;16.70;7.10;;;-3.00;99.90;;;;;;5031860;28;20719;-89
2024/01/17 02:12:42;;;;;;;14.00;6.87;;;-3.00;99.90;;;;;;5033608;28;20188;-87
2024/01/17 02:15:08;;;;;;;12.75;7.45;;;-2.90;99.90;;;;;;5032575;28;20968;-90
2024/01/17 02:17:34;;;;;;;16.02;8.07;;;-2.90;99.90;;;;;;5030450;28;20680;-88
2024/01/17 02:19:59;;;;;;;13.50;7.47;;;-3.00;99.90;;;;;;5029288;28;20207;-88
2024/01/17 02:22:25;;;;;;;9.10;6.90;;;-3.00;99.90;;;;;;5029943;28;20179;-87
2024/01/17 02:24:50;;;;;;;12.30;6.83;;;-3.00;1.00;;;;;;5042125;28;20716;-86
2024/01/17 02:27:16;;;;;;;16.60;7.47;;;-3.10;1.00;;;;;;5040582;28;20536;-87
2024/01/17 02:29:45;;;;;;;11.67;6.67;;;-3.10;1.00;;;;;;5040179;28;20207;-87
2024/01/17 02:32:11;;;;;;;9.45;7.47;;;-3.00;1.00;;;;;;5036908;28;20218;-87
2024/01/17 02:34:36;;;;;;;15.30;8.33;;;-3.10;1.00;;;;;;5036274;28;20680;-88
2024/01/17 02:37:02;;;;;;;13.70;7.53;;;-3.00;1.00;;;;;;5041996;28;20213;-88
2024/01/17 02:39:28;;;;;;;10.90;6.20;;;-3.00;1.00;;;;;;5041468;28;20500;-88
2024/01/17 02:41:53;;;;;;;11.67;6.77;;;-3.00;1.00;;;;;;5038565;28;20207;-87
2024/01/17 02:44:19;;;;;;;12.37;7.40;;;-3.00;1.00;;;;;;5042836;28;20183;-87
2024/01/17 02:46:44;;;;;;;13.20;7.50;;;-3.10;1.00;;;;;;5040081;28;20282;-90
2024/01/17 02:49:15;;;;;;;19.73;8.40;;;-3.10;1.00;;;;;;5030976;28;20196;-90
2024/01/17 02:51:41;;;;;;;11.73;6.57;;;-3.10;1.00;;;;;;5040417;28;20216;-86
2024/01/17 02:54:06;;;;;;;8.40;5.93;;;-3.10;1.00;;;;;;5036426;28;20200;-86
2024/01/17 02:56:32;;;;;;;16.83;8.00;;;-3.10;1.00;;;;;;5040422;28;20187;-86
2024/01/17 02:58:57;;;;;;;11.03;6.70;;;-3.10;1.00;;;;;;5038905;28;20183;-86
2024/01/17 03:01:25;;;;;;;13.07;7.40;;;-3.00;1.00;;;;;;5033017;28;20742;-87
2024/01/17 03:03:51;;;;;;;15.50;6.90;;;-3.00;1.00;;;;;;5040397;28;20274;-87
2024/01/17 03:06:17;;;;;;;10.97;7.23;;;-3.00;99.90;;;;;;5037799;28;20206;-86
2024/01/17 03:08:46;;;;;;;13.90;7.40;;;-3.00;99.90;;;;;;5041311;28;20213;-89
2024/01/17 03:11:11;;;;;;;13.45;6.75;;;-3.00;99.90;;;;;;5033334;28;20211;-85
2024/01/17 03:13:37;;;;;;;17.27;7.40;;;-3.00;1.00;;;;;;5036084;28;20202;-87
2024/01/17 03:16:03;;;;;;;12.80;7.17;;;-3.00;1.00;;;;;;5036606;28;20186;-90
2024/01/17 03:18:29;;;;;;;12.40;6.60;;;-3.00;1.00;;;;;;5028096;28;20190;-87
2024/01/17 03:20:54;;;;;;;11.32;7.07;;;-3.00;1.00;;;;;;5032243;28;20572;-87
2024/01/17 03:23:26;;;;;;;13.40;6.27;;;-3.00;1.00;;;;;;5036513;28;20278;-86
2024/01/17 03:25:51;;;;;;;16.83;7.65;;;-2.90;99.90;;;;;;5037155;28;20193;-86
2024/01/17 03:28:17;;;;;;;13.00;6.57;;;-3.00;1.00;;;;;;5028947;28;20183;-87
2024/01/17 03:30:43;;;;;;;10.77;6.77;;;-2.90;1.00;;;;;;5022745;28;20284;-85
2024/01/17 03:33:14;;;;;;;12.73;7.17;;;-2.90;1.00;;;;;;5037216;28;20297;-86
2024/01/17 03:35:42;;;;;;;14.63;7.15;;;-2.90;1.00;;;;;;5032499;28;20500;-86
2024/01/17 03:38:07;;;;;;;11.65;6.68;;;-2.90;99.90;;;;;;5034722;28;20270;-87
2024/01/17 03:40:33;;;;;;;10.73;6.97;;;-3.00;99.90;;;;;;5032060;28;20246;-89
2024/01/17 03:42:58;;;;;;;14.30;7.67;;;-3.00;1.00;;;;;;5025445;28;20539;-86
2024/01/17 03:45:24;;;;;;;14.13;7.33;;;-3.00;1.00;;;;;;5028639;28;20589;-84
2024/01/17 03:47:50;;;;;;;12.00;7.20;;;-3.00;1.00;;;;;;5038946;28;20559;-87
2024/01/17 03:50:15;;;;;;;11.83;7.80;;;-3.10;1.00;;;;;;5029814;28;20343;-86
2024/01/17 03:52:41;;;;;;;16.53;7.63;;;-3.10;1.00;;;;;;5036317;28;20201;-86
2024/01/17 03:55:07;;;;;;;12.37;7.00;;;-3.10;99.90;;;;;;5038782;28;20252;-86
2024/01/17 03:57:32;;;;;;;10.60;8.00;;;-3.10;99.90;;;;;;5038744;28;20194;-86
2024/01/17 03:59:58;;;;;;;12.40;7.70;;;-3.10;99.90;;;;;;5037452;28;20458;-87
2024/01/17 04:02:23;;;;;;;14.80;7.20;;;-3.10;99.90;;;;;;5035046;28;20190;-85
2024/01/17 04:04:49;;;;;;;11.60;6.50;;;-3.10;1.00;;;;;;5039513;28;20175;-86
2024/01/17 04:07:14;;;;;;;11.40;7.27;;;-3.10;1.00;;;;;;5034023;28;20194;-88
2024/01/17 04:09:41;;;;;;;11.20;6.27;;;-3.10;1.00;;;;;;5038166;28;20206;-88
2024/01/17 04:12:07;;;;;;;12.88;8.00;;;-3.00;1.00;;;;;;5030131;28;20187;-85
2024/01/17 04:14:33;;;;;;;9.82;6.75;;;-3.00;99.90;;;;;;5033848;28;20214;-90
2024/01/17 04:16:58;;;;;;;13.87;6.90;;;-3.00;99.90;;;;;;5037485;28;20560;-86
2024/01/17 04:19:24;;;;;;;12.83;7.27;;;-2.90;99.90;;;;;;5038157;28;20202;-85
2024/01/17 04:21:56;;;;;;;13.00;6.73;;;-2.90;99.90;;;;;;5037137;28;20217;-86
2024/01/17 04:24:23;;;;;;;17.00;6.55;;;-2.90;1.00;;;;;;5031001;28;20187;-87
2024/01/17 04:26:48;;;;;;;12.43;8.00;;;-3.00;16.10;;;;;;5035749;28;20178;-86
2024/01/17 04:29:14;;;;;;;15.87;9.50;;;-2.90;99.90;;;;;;5038348;28;20696;-85
2024/01/17 04:31:39;;;;;;;10.73;7.43;;;-3.00;1.00;;;;;;5029242;28;20589;-89
2024/01/17 04:34:05;;;;;;;14.23;8.33;;;-3.00;99.90;;;;;;5034646;28;20221;-86
2024/01/17 04:36:31;;;;;;;13.80;8.30;;;-3.00;99.90;;;;;;5033657;28;20193;-85
2024/01/17 04:38:57;;;;;;;15.90;7.80;;;-3.00;99.90;;;;;;5031381;28;20650;-86
2024/01/17 04:41:23;;;;;;;11.98;7.40;;;-3.00;99.90;;;;;;5020117;28;20222;-85
2024/01/17 04:43:48;;;;;;;13.93;6.83;;;-2.90;99.90;;;;;;5038913;28;20179;-86
2024/01/17 04:46:15;;;;;;;10.23;7.20;;;-2.90;99.90;;;;;;5025313;28;20190;-85
2024/01/17 04:48:42;;;;;;;12.32;6.97;;;-2.80;99.90;;;;;;5035478;28;20210;-90
2024/01/17 04:51:09;;;;;;;13.98;8.25;;;-2.80;99.90;;;;;;5030726;28;20333;-85
2024/01/17 04:53:41;;;;;;;20.30;8.27;;;-2.70;1.00;;;;;;5036554;28;20182;-86
2024/01/17 04:56:11;;;;;;;11.27;7.00;;;-2.70;1.00;;;;;;5034506;28;20637;-87
2024/01/17 04:58:37;;;;;;;15.57;8.18;;;-2.70;99.90;;;;;;5035302;28;20261;-85
2024/01/17 05:01:04;;;;;;;15.93;8.03;;;-2.70;99.90;;;;;;5034002;28;20248;-92
2024/01/17 05:03:31;;;;;;;20.65;9.20;;;-2.70;99.90;;;;;;5029662;28;20212;-85
2024/01/17 05:05:57;;;;;;;17.75;8.65;;;-2.80;1.00;;;;;;5033444;28;20648;-86
2024/01/17 05:08:22;;;;;;;44.90;17.07;;;-2.70;1.00;;;;;;5033786;28;20225;-86
2024/01/17 05:10:48;;;;;;;17.80;9.33;;;-2.70;1.00;;;;;;5027374;28;20218;-87
2024/01/17 05:13:14;;;;;;;16.17;10.03;;;-2.60;1.00;;;;;;5037966;28;20179;-90
2024/01/17 05:15:40;;;;;;;17.37;9.07;;;-2.60;99.90;;;;;;5038181;28;20640;-87
2024/01/17 05:18:06;;;;;;;12.60;7.72;;;-2.60;99.90;;;;;;5040352;28;20636;-85
2024/01/17 05:20:33;;;;;;;16.75;8.63;;;-2.60;99.90;;;;;;5037284;28;20210;-85
2024/01/17 05:22:59;;;;;;;15.13;8.70;;;-2.60;99.90;;;;;;5031241;28;20190;-87
2024/01/17 05:25:25;;;;;;;16.45;8.10;;;-2.60;99.90;;;;;;5019053;28;20187;-85
2024/01/17 05:27:52;;;;;;;12.43;7.85;;;-2.60;99.90;;;;;;5034566;28;20745;-87
2024/01/17 05:30:23;;;;;;;13.50;7.85;;;-2.60;99.90;;;;;;5032823;28;20571;-87
2024/01/17 05:32:49;;;;;;;13.93;8.20;;;-2.60;99.90;;;;;;5027681;28;20191;-86
2024/01/17 05:35:15;;;;;;;15.93;8.57;;;-2.60;1.00;;;;;;5036491;28;20256;-88
2024/01/17 05:37:41;;;;;;;13.85;8.27;;;-2.60;1.00;;;;;;5033666;28;20281;-88
2024/01/17 05:40:10;;;;;;;19.67;9.55;;;-2.50;99.90;;;;;;5033648;28;20210;-87
2024/01/17 05:42:38;;;;;;;14.18;8.40;;;-2.60;1.00;;;;;;5040960;28;20254;-87
2024/01/17 05:45:04;;;;;;;13.25;7.50;;;-2.50;99.90;;;;;;5037630;28;20649;-88
2024/01/17 05:47:30;;;;;;;18.23;8.52;;;-2.50;99.90;;;;;;5044826;28;20257;-89
2024/01/17 05:49:57;;;;;;;14.50;7.67;;;-2.50;99.90;;;;;;5044903;28;20673;-88
2024/01/17 05:52:23;;;;;;;17.60;10.05;;;-2.50;74.20;;;;;;5040858;28;20492;-88
2024/01/17 05:54:48;;;;;;;13.95;7.05;;;-2.50;88.00;;;;;;5043312;28;20186;-90
2024/01/17 05:57:14;;;;;;;16.70;8.70;;;-2.50;99.90;;;;;;5031120;28;20184;-88
2024/01/17 05:59:40;;;;;;;15.40;9.13;;;-2.50;99.90;;;;;;5037317;28;20229;-88
2024/01/17 06:02:05;;;;;;;15.50;8.10;;;-2.50;99.90;;;;;;5038773;28;20210;-89
2024/01/17 06:04:33;;;;;;;18.40;9.30;;;-2.50;1.00;;;;;;5038809;28;20484;-88
2024/01/17 06:06:58;;;;;;;12.73;9.18;;;-2.50;1.00;;;;;;5035815;28;20465;-89
2024/01/17 06:09:24;;;;;;;19.63;10.23;;;-2.40;1.00;;;;;;5042446;28;20179;-88
2024/01/17 06:11:50;;;;;;;21.07;10.70;;;-2.50;1.00;;;;;;5045497;28;20491;-87
2024/01/17 06:14:15;;;;;;;17.30;10.03;;;-2.40;1.00;;;;;;5042463;28;20225;-89
2024/01/17 06:16:41;;;;;;;16.23;9.07;;;-2.40;1.00;;;;;;5043274;28;20186;-88
2024/01/17 06:19:07;;;;;;;17.27;8.00;;;-2.30;1.00;;;;;;5044084;28;20445;-89
2024/01/17 06:21:32;;;;;;;20.43;8.90;;;-2.30;99.90;;;;;;5034510;28;20237;-87
2024/01/17 06:23:58;;;;;;;14.73;8.10;;;-2.20;99.90;;;;;;5041606;28;20243;-88
2024/01/17 06:26:23;;;;;;;16.40;9.17;;;-2.20;1.00;;;;;;5041457;28;20203;-91
2024/01/17 06:28:49;;;;;;;16.93;9.40;;;-2.10;1.00;;;;;;5038751;28;20191;-88
2024/01/17 06:31:22;;;;;;;16.50;9.23;;;-2.10;1.00;;;;;;5038023;28;20293;-89
2024/01/17 06:33:48;;;;;;;12.93;8.32;;;-2.20;1.00;;;;;;5036394;28;20214;-88
2024/01/17 06:36:14;;;;;;;20.13;9.95;;;-2.20;1.00;;;;;;5041555;28;20191;-90
2024/01/17 06:38:39;;;;;;;24.90;12.50;;;-2.20;1.00;;;;;;5045621;28;20944;-87
2024/01/17 06:41:05;;;;;;;17.13;10.13;;;-2.30;99.90;;;;;;5036575;28;20238;-86
2024/01/17 06:43:30;;;;;;;15.63;10.50;;;-2.30;1.00;;;;;;5042598;28;20198;-89
2024/01/17 06:45:56;;;;;;;19.27;10.07;;;-2.30;1.00;;;;;;5042313;28;20191;-87
2024/01/17 06:48:22;;;;;;;15.17;9.50;;;-2.30;1.00;;;;;;5043705;28;20197;-89
2024/01/17 06:50:47;;;;;;;16.53;11.00;;;-2.20;1.00;;;;;;5039683;28;20210;-88
2024/01/17 06:53:15;;;;;;;18.17;11.33;;;-2.20;1.00;;;;;;5033913;28;20221;-90
2024/01/17 06:55:50;;;;;;;17.15;9.20;;;-2.20;99.90;;;;;;5038035;28;20190;-86
2024/01/17 06:58:16;;;;;;;16.60;8.80;;;-2.20;1.00;;;;;;5036714;28;20213;-86
2024/01/17 07:00:43;;;;;;;22.03;10.53;;;-2.20;99.90;;;;;;5032653;28;20215;-90
2024/01/17 07:03:08;;;;;;;18.42;10.93;;;-2.20;1.00;;;;;;5033720;28;20207;-86
2024/01/17 07:05:34;;;;;;;19.70;10.33;;;-2.20;1.00;;;;;;5037439;28;20229;-90
2024/01/17 07:08:00;;;;;;;24.73;9.90;;;-2.20;99.90;;;;;;5042506;28;20226;-89
2024/01/17 07:10:25;;;;;;;16.90;9.37;;;-2.20;99.90;;;;;;5029374;28;20239;-87
2024/01/17 07:12:51;;;;;;;23.23;10.90;;;-2.10;1.00;;;;;;5035551;28;20183;-84
2024/01/17 07:15:17;;;;;;;20.37;9.80;;;-2.10;99.90;;;;;;5028598;28;20661;-86
2024/01/17 07:17:45;;;;;;;19.30;10.00;;;-2.10;99.90;;;;;;5037869;28;20186;-86
2024/01/17 07:20:12;;;;;;;23.38;11.10;;;-2.10;99.90;;;;;;5040408;28;20596;-88
2024/01/17 07:22:44;;;;;;;18.98;9.95;;;-2.10;99.90;;;;;;5036077;28;20268;-86
2024/01/17 07:25:16;;;;;;;17.80;10.93;;;-2.00;1.00;;;;;;5031960;28;20189;-86
2024/01/17 07:27:47;;;;;;;19.15;11.00;;;-2.00;1.00;;;;;;5031774;28;20179;-86
2024/01/17 07:30:13;;;;;;;23.40;11.25;;;-1.90;1.00;;;;;;5039112;28;20206;-86
2024/01/17 07:32:39;;;;;;;22.45;10.75;;;-1.80;1.00;;;;;;5025319;28;20178;-85
2024/01/17 07:35:08;;;;;;;16.70;9.82;;;-1.70;99.90;;;;;;5035103;28;20556;-85
2024/01/17 07:37:37;;;;;;;19.35;10.02;;;-1.60;1.00;;;;;;5038622;28;20183;-86
2024/01/17 07:40:05;;;;;;;15.75;9.32;;;-1.50;99.90;;;;;;5039346;28;20206;-86
2024/01/17 07:42:31;;;;;;;16.83;10.20;;;-1.50;99.90;;;;;;5021578;28;20267;-85
2024/01/17 07:44:56;;;;;;;17.03;9.30;;;-1.40;99.90;;;;;;5023171;28;20187;-87
2024/01/17 07:47:23;;;;;;;32.87;12.63;;;-1.50;1.00;;;;;;5025874;28;20184;-87
2024/01/17 07:49:48;;;;;;;26.13;13.30;;;-1.40;1.00;;;;;;5026209;28;20584;-86
2024/01/17 07:52:17;;;;;;;24.80;12.13;;;-1.40;1.00;;;;;;5027999;28;20184;-87
2024/01/17 07:54:43;;;;;;;27.52;14.27;;;-1.30;1.00;;;;;;5051244;28;20274;-86
2024/01/17 07:57:08;;;;;;;43.10;20.07;;;-1.30;99.90;;;;;;5025481;28;20286;-87
2024/01/17 07:59:34;;;;;;;45.13;18.33;;;-1.20;1.00;;;;;;5025285;28;20224;-85
2024/01/17 08:01:59;;;;;;;31.20;17.13;;;-1.20;1.00;;;;;;5033178;28;20214;-86
2024/01/17 08:04:25;;;;;;;20.87;12.57;;;-1.10;99.90;;;;;;5033983;28;20661;-86
2024/01/17 08:06:50;;;;;;;30.20;15.00;;;-1.10;99.90;;;;;;5026965;28;20198;-86
2024/01/17 08:09:22;;;;;;;21.70;12.10;;;-1.00;99.90;;;;;;5035921;28;20183;-86
2024/01/17 08:11:48;;;;;;;21.70;12.63;;;-0.90;99.90;;;;;;5031787;28;20184;-86
2024/01/17 08:14:14;;;;;;;18.17;10.00;;;-0.90;99.90;;;;;;5032402;28;20189;-85
2024/01/17 08:16:40;;;;;;;15.23;10.30;;;-0.90;27.30;;;;;;5036205;28;20190;-85
2024/01/17 08:19:05;;;;;;;22.07;10.90;;;-1.00;1.00;;;;;;5031646;28;20631;-86
2024/01/17 08:21:31;;;;;;;19.37;12.23;;;-1.00;99.90;;;;;;5028910;28;20568;-84
2024/01/17 08:23:58;;;;;;;20.23;11.57;;;-0.90;38.40;;;;;;5032844;28;20203;-86
2024/01/17 08:26:25;;;;;;;16.60;9.85;;;-1.00;5.00;;;;;;5028171;28;20178;-88
2024/01/17 08:28:50;;;;;;;17.45;9.48;;;-0.90;41.90;;;;;;5033401;28;20186;-86
2024/01/17 08:31:16;;;;;;;16.93;10.87;;;-1.00;26.20;;;;;;5026209;28;20221;-87
2024/01/17 08:33:42;;;;;;;20.50;11.63;;;-0.90;39.80;;;;;;5029892;28;20183;-85
2024/01/17 08:36:08;;;;;;;21.13;12.27;;;-0.80;1.00;;;;;;5026083;28;20469;-86
2024/01/17 08:38:36;;;;;;;29.77;13.30;;;-0.80;38.10;;;;;;5033744;28;20186;-87
2024/01/17 08:41:05;;;;;;;23.63;13.48;;;-0.70;1.00;;;;;;5024763;28;20597;-85
2024/01/17 08:43:30;;;;;;;19.60;11.20;;;-0.60;33.10;;;;;;5030474;28;20260;-87
2024/01/17 08:45:56;;;;;;;15.80;10.27;;;-0.60;1.00;;;;;;5023473;28;20203;-86
2024/01/17 08:48:21;;;;;;;19.70;11.10;;;-0.50;1.00;;;;;;5023415;28;20190;-86
2024/01/17 08:50:47;;;;;;;19.10;10.27;;;-0.30;1.00;;;;;;5024233;28;20269;-86
2024/01/17 08:53:14;;;;;;;14.87;9.77;;;-0.20;1.00;;;;;;5030886;28;20178;-86
2024/01/17 08:55:40;;;;;;;17.08;10.20;;;-0.20;1.00;;;;;;5034404;28;20194;-84
2024/01/17 08:58:06;;;;;;;16.70;9.87;;;-0.20;99.90;;;;;;5035228;28;20194;-84
2024/01/17 09:00:32;;;;;;;20.95;10.82;;;-0.20;99.90;;;;;;5030177;28;20234;-83
2024/01/17 09:02:57;;;;;;;18.10;10.80;;;-0.10;99.90;;;;;;5027482;28;20581;-84
2024/01/17 09:05:23;;;;;;;19.10;9.47;;;0.00;99.90;;;;;;5029778;28;20186;-84
2024/01/17 09:07:49;;;;;;;14.60;9.27;;;0.10;99.90;;;;;;5025332;28;20183;-84
2024/01/17 09:10:17;;;;;;;16.08;10.30;;;0.10;99.90;;;;;;5029171;28;20210;-83
2024/01/17 09:12:43;;;;;;;16.23;10.05;;;0.10;99.90;;;;;;5030131;28;20225;-84
2024/01/17 09:15:09;;;;;;;18.90;10.27;;;0.00;99.90;;;;;;5032065;28;20245;-84
2024/01/17 09:17:35;;;;;;;21.00;11.37;;;0.00;99.90;;;;;;5028198;28;20641;-83
2024/01/17 09:20:01;;;;;;;15.27;10.30;;;0.10;99.90;;;;;;5026780;28;20207;-83
2024/01/17 09:22:26;;;;;;;14.60;10.05;;;0.20;99.90;;;;;;5031739;28;20252;-83
2024/01/17 09:24:52;;;;;;;15.40;9.73;;;0.10;99.90;;;;;;5026422;28;20183;-82
2024/01/17 09:27:18;;;;;;;15.02;8.80;;;0.10;99.90;;;;;;5020857;28;20183;-81
2024/01/17 09:29:45;;;;;;;15.77;9.07;;;0.10;99.90;;;;;;5032686;28;20218;-83
2024/01/17 09:32:12;;;;;;;17.13;9.55;;;0.20;99.90;;;;;;5029816;28;20669;-86
2024/01/17 09:34:37;;;;;;;22.27;9.27;;;0.10;99.90;;;;;;5030218;28;20224;-84
2024/01/17 09:37:03;;;;;;;17.03;9.83;;;0.10;99.90;;;;;;5024515;28;20187;-83
2024/01/17 09:39:29;;;;;;;22.50;9.90;;;0.10;99.90;;;;;;5025431;28;20558;-83
2024/01/17 09:41:58;;;;;;;18.67;10.60;;;0.20;99.90;;;;;;5027984;28;20214;-84
2024/01/17 09:44:24;;;;;;;15.50;10.57;;;0.30;99.90;;;;;;5031261;28;20250;-83
2024/01/17 09:46:51;;;;;;;18.03;10.73;;;0.20;99.90;;;;;;5024553;28;20190;-83
2024/01/17 09:49:17;;;;;;;12.85;8.43;;;0.20;99.90;;;;;;5034707;28;20433;-84
2024/01/17 09:51:42;;;;;;;17.23;10.13;;;0.30;99.90;;;;;;5035015;28;20291;-84
2024/01/17 09:54:09;;;;;;;19.87;10.20;;;0.30;99.90;;;;;;5044139;28;20265;-83
2024/01/17 09:56:36;;;;;;;26.48;9.77;;;0.40;99.90;;;;;;5046440;28;20183;-84
2024/01/17 09:59:16;;;;;;;15.10;9.50;;;0.40;99.90;;;;;;5048752;28;20213;-85
2024/01/17 10:01:45;;;;;;;15.85;9.40;;;0.40;99.90;;;;;;5055699;28;20218;-83
2024/01/17 10:04:15;;;;;;;22.58;10.55;;;0.50;99.90;;;;;;5048879;28;20195;-86
2024/01/17 10:06:44;;;;;;;15.93;9.20;;;0.40;91.20;;;;;;5036224;28;20235;-85
2024/01/17 10:09:10;;;;;;;18.25;8.98;;;0.60;99.90;;;;;;5032360;28;20786;-85
2024/01/17 10:11:36;;;;;;;17.80;10.25;;;0.50;99.90;;;;;;5029306;28;20584;-86
2024/01/17 10:14:03;;;;;;;17.37;10.70;;;0.40;99.90;;;;;;5032098;28;21032;-85
2024/01/17 10:16:28;;;;;;;22.00;9.18;;;0.40;99.90;;;;;;5039443;28;20175;-82
2024/01/17 10:18:54;;;;;;;17.40;10.73;;;0.60;99.90;;;;;;5030461;28;20189;-83
2024/01/17 10:21:20;;;;;;;13.93;9.20;;;0.70;99.90;;;;;;5030845;28;20221;-83
2024/01/17 10:23:45;;;;;;;16.47;10.57;;;0.80;99.90;;;;;;5037619;28;20531;-84
2024/01/17 10:26:11;;;;;;;16.43;10.73;;;0.90;99.90;;;;;;5028252;28;20183;-84
2024/01/17 10:28:37;;;;;;;15.17;9.80;;;0.90;89.00;;;;;;5032988;28;20559;-86
2024/01/17 10:31:04;;;;;;;17.03;10.47;;;0.90;92.40;;;;;;5029094;28;20203;-88
2024/01/17 10:33:33;;;;;;;18.95;10.63;;;0.90;43.80;;;;;;5040977;28;20183;-88
2024/01/17 10:35:59;;;;;;;16.83;10.18;;;0.90;32.80;;;;;;5040190;28;20218;-85
2024/01/17 10:38:32;;;;;;;20.70;12.03;;;0.80;1.00;;;;;;5040016;28;20213;-86
2024/01/17 10:41:07;;;;;;;20.58;10.45;;;0.80;1.00;;;;;;5037748;28;20241;-85
2024/01/17 10:43:50;;;;;;;19.50;9.73;;;0.90;21.30;;;;;;5033693;28;20170;-86
2024/01/17 10:46:16;;;;;;;18.35;9.93;;;0.90;1.00;;;;;;5034937;28;20199;-84
2024/01/17 10:48:42;;;;;;;15.90;9.97;;;1.00;22.50;;;;;;5036244;28;20563;-85
2024/01/17 10:51:10;;;;;;;19.43;10.37;;;1.00;8.20;;;;;;5033081;28;20469;-85
2024/01/17 10:54:08;;;;;;;22.83;9.27;;;1.10;1.00;;;;;;5019830;28;20283;-88
2024/01/17 10:56:37;;;;;;;21.95;9.20;;;1.10;1.00;;;;;;5020761;28;20186;-87
2024/01/17 10:59:06;;;;;;;16.95;10.75;;;1.20;1.00;;;;;;5030277;28;20485;-86
2024/01/17 11:01:37;;;;;;;20.33;10.75;;;1.20;1.00;;;;;;5033693;28;20260;-87
2024/01/17 11:04:20;;;;;;;17.63;10.05;;;1.20;1.00;;;;;;5036426;28;20460;-87
2024/01/17 11:06:50;;;;;;;16.48;10.15;;;1.20;1.00;;;;;;5031236;28;20468;-87
2024/01/17 11:09:26;;;;;;;15.68;9.73;;;1.30;1.00;;;;;;5020995;28;20228;-89
2024/01/17 11:11:52;;;;;;;22.60;10.35;;;1.30;1.00;;;;;;5029265;28;20273;-85
2024/01/17 11:14:20;;;;;;;18.23;11.25;;;1.40;1.00;;;;;;5028434;28;20198;-86
2024/01/17 11:16:48;;;;;;;15.13;9.63;;;1.30;1.00;;;;;;5033590;28;20180;-86
2024/01/17 11:19:15;;;;;;;16.35;9.35;;;1.40;1.00;;;;;;5035736;28;20186;-88
2024/01/17 11:21:42;;;;;;;19.27;10.93;;;1.40;1.00;;;;;;5038955;28;20201;-87
2024/01/17 11:24:26;;;;;;;16.08;9.80;;;1.40;1.00;;;;;;5036705;28;20182;-87
2024/01/17 11:27:16;;;;;;;14.57;8.90;;;1.50;1.00;;;;;;5057041;28;20183;-88
2024/01/17 11:29:53;;;;;;;18.35;10.23;;;1.60;1.00;;;;;;5031135;28;20199;-87
2024/01/17 11:32:48;;;;;;;17.10;10.73;;;1.50;1.00;;;;;;5038432;28;20178;-87
2024/01/17 11:35:42;;;;;;;20.10;11.10;;;1.50;29.70;;;;;;5037644;28;20179;-87
2024/01/17 11:38:31;;;;;;;35.15;10.80;;;1.40;99.90;;;;;;5040501;28;20250;-86
2024/01/17 11:40:58;;;;;;;20.52;11.57;;;1.30;99.90;;;;;;5027946;28;20215;-86
2024/01/17 11:43:35;;;;;;;19.65;12.23;;;1.30;1.00;;;;;;5028532;28;20210;-86
2024/01/17 11:46:04;;;;;;;17.45;11.43;;;1.20;1.00;;;;;;5033075;28;20558;-88
2024/01/17 11:48:31;;;;;;;17.40;12.13;;;1.30;7.00;;;;;;5042071;28;20228;-89
2024/01/17 11:51:06;;;;;;;18.77;11.00;;;1.20;91.10;;;;;;5024879;28;20203;-86
2024/01/17 11:53:35;;;;;;;17.20;10.07;;;1.30;99.90;;;;;;5031405;28;20214;-86
2024/01/17 11:56:02;;;;;;;18.13;12.15;;;1.30;1.00;;;;;;5032547;28;20182;-88
2024/01/17 11:58:47;;;;;;;26.92;12.63;;;1.20;1.00;;;;;;5025998;28;20184;-86
2024/01/17 12:01:22;;;;;;;23.70;12.60;;;1.20;99.90;;;;;;5032173;28;20210;-86
2024/01/17 12:03:51;;;;;;;19.73;12.95;;;1.30;1.00;;;;;;5031966;28;20174;-86
2024/01/17 12:06:20;;;;;;;26.85;12.43;;;1.40;99.90;;;;;;5024454;28;20190;-86
2024/01/17 12:08:48;;;;;;;30.65;12.70;;;1.20;1.00;;;;;;5030065;28;20653;-85
2024/01/17 12:11:14;;;;;;;33.38;12.55;;;1.30;99.90;;;;;;5023052;28;20807;-86
2024/01/17 12:13:39;;;;;;;24.40;12.70;;;1.40;1.00;;;;;;5049770;28;20219;-86
2024/01/17 12:16:06;;;;;;;25.73;12.80;;;1.30;99.90;;;;;;5033808;28;20495;-87
2024/01/17 12:18:35;;;;;;;28.92;13.60;;;1.40;99.90;;;;;;5031800;28;20715;-86
2024/01/17 12:21:02;;;;;;;27.15;14.43;;;1.40;99.90;;;;;;5026839;28;20302;-87
2024/01/17 12:23:30;;;;;;;24.25;12.85;;;1.50;99.90;;;;;;5023697;28;20686;-85
2024/01/17 12:25:57;;;;;;;29.42;15.38;;;1.50;99.90;;;;;;5027499;28;20274;-85
2024/01/17 12:28:24;;;;;;;24.30;13.07;;;1.50;99.90;;;;;;5026705;28;20179;-84
2024/01/17 12:31:02;;;;;;;25.35;12.23;;;1.50;1.00;;;;;;5035030;28;20217;-85
2024/01/17 12:33:44;;;;;;;28.38;13.57;;;1.40;1.00;;;;;;5035940;28;20556;-86
2024/01/17 12:36:11;;;;;;;29.75;15.40;;;1.50;1.00;;;;;;5030495;28;20192;-89
2024/01/17 12:38:40;;;;;;;35.58;13.90;;;1.60;99.90;;;;;;5027904;28;20275;-87
2024/01/17 12:41:11;;;;;;;22.65;13.68;;;1.60;99.90;;;;;;5022835;28;20206;-87